Time;durP1;ratioP1;P1;durP2;ratioP2;P2;SDS_P1;SDS_P2;PMS_P1;PMS_P2;Temp;Humidity;BMP_temperature;BMP_pressure;BME280_temperature;BME280_humidity;BME280_pressure;Samples;Min_cycle;Max_cycle;Signal;HPM_P1;HPM_P2
2021/06/09 00:01:13;;;;;;;25.15;21.90;;;14.50;92.50;;;;;;5053530;28;20020;-82
2021/06/09 00:03:38;;;;;;;23.80;21.38;;;14.40;92.80;;;;;;5040927;28;20401;-80
2021/06/09 00:06:04;;;;;;;23.65;21.10;;;14.40;92.80;;;;;;5056286;28;20036;-80
2021/06/09 00:08:30;;;;;;;26.08;22.77;;;14.40;92.50;;;;;;5047262;28;20045;-79
2021/06/09 00:10:56;;;;;;;24.27;21.25;;;14.40;92.90;;;;;;5062876;28;20468;-81
2021/06/09 00:13:29;;;;;;;23.55;20.98;;;14.30;92.90;;;;;;5058052;28;20021;-80
2021/06/09 00:15:56;;;;;;;24.08;21.35;;;14.30;92.60;;;;;;5029250;28;20051;-79
2021/06/09 00:18:22;;;;;;;21.92;19.67;;;14.30;92.80;;;;;;5027132;28;20809;-81
2021/06/09 00:20:48;;;;;;;24.65;21.90;;;14.30;92.60;;;;;;5055774;28;20048;-80
2021/06/09 00:23:19;;;;;;;27.88;23.75;;;14.20;92.70;;;;;;5055230;28;20033;-81
2021/06/09 00:25:50;;;;;;;25.88;22.13;;;14.20;93.10;;;;;;5045996;28;20417;-81
2021/06/09 00:28:17;;;;;;;22.52;20.15;;;14.20;93.00;;;;;;5042055;28;20082;-81
2021/06/09 00:30:42;;;;;;;25.02;22.33;;;14.20;92.90;;;;;;5055289;28;20052;-79
2021/06/09 00:33:08;;;;;;;28.48;23.33;;;14.20;92.90;;;;;;5061179;28;20056;-80
2021/06/09 00:35:34;;;;;;;24.80;22.17;;;14.20;93.00;;;;;;5054926;28;20123;-80
2021/06/09 00:37:59;;;;;;;27.73;22.23;;;14.10;93.30;;;;;;5059514;28;20035;-80
2021/06/09 00:40:26;;;;;;;25.67;21.45;;;14.20;93.00;;;;;;5056992;28;20393;-81
2021/06/09 00:43:11;;;;;;;24.60;21.20;;;14.20;92.80;;;;;;5057336;28;20036;-79
2021/06/09 00:45:48;;;;;;;24.90;22.25;;;14.20;92.70;;;;;;5056447;28;20370;-81
2021/06/09 00:48:13;;;;;;;25.13;21.80;;;14.10;92.70;;;;;;5028747;28;20473;-81
2021/06/09 00:50:40;;;;;;;29.02;24.05;;;14.10;93.00;;;;;;5055368;28;20116;-80
2021/06/09 00:55:50;;;;;;;25.20;21.30;;;14.00;93.10;;;;;;5043849;28;20102;-81
2021/06/09 00:58:16;;;;;;;24.33;21.70;;;14.00;92.80;;;;;;5056003;28;20040;-80
2021/06/09 01:00:41;;;;;;;27.30;22.23;;;14.00;93.30;;;;;;5057583;28;20087;-79
2021/06/09 01:03:07;;;;;;;26.92;22.23;;;14.00;92.90;;;;;;5057564;28;20038;-81
2021/06/09 01:05:33;;;;;;;27.08;23.05;;;13.90;93.00;;;;;;5043078;28;20037;-80
2021/06/09 01:08:00;;;;;;;28.25;23.45;;;13.90;92.90;;;;;;5053636;28;20025;-81
2021/06/09 01:10:26;;;;;;;27.70;23.92;;;13.90;92.90;;;;;;5027835;28;20051;-80
2021/06/09 01:12:52;;;;;;;28.02;23.45;;;13.90;93.20;;;;;;5046874;28;20287;-81
2021/06/09 01:15:18;;;;;;;27.83;23.58;;;13.90;93.00;;;;;;5056709;28;20413;-80
2021/06/09 01:17:44;;;;;;;27.40;23.10;;;13.80;93.20;;;;;;5048603;28;20074;-81
2021/06/09 01:20:10;;;;;;;24.77;22.10;;;13.80;93.00;;;;;;5062360;28;20020;-80
2021/06/09 01:22:36;;;;;;;26.95;23.23;;;13.80;92.70;;;;;;5053068;28;20099;-82
2021/06/09 01:25:04;;;;;;;29.33;24.58;;;13.80;93.10;;;;;;5043446;28;20430;-80
2021/06/09 01:27:30;;;;;;;29.70;25.90;;;13.70;93.10;;;;;;5048403;28;20024;-80
2021/06/09 01:29:55;;;;;;;28.80;24.13;;;13.70;93.30;;;;;;5047248;28;20024;-81
2021/06/09 01:32:21;;;;;;;30.50;26.48;;;13.70;93.40;;;;;;5059869;28;20099;-80
2021/06/09 01:34:46;;;;;;;49.00;37.03;;;13.80;93.80;;;;;;5060166;28;20021;-81
2021/06/09 01:37:12;;;;;;;35.40;29.75;;;14.20;94.80;;;;;;5047948;28;20028;-81
2021/06/09 01:39:38;;;;;;;37.15;30.40;;;14.20;93.70;;;;;;5025310;28;20103;-80
2021/06/09 01:42:04;;;;;;;35.58;29.25;;;14.20;93.80;;;;;;5055804;28;20033;-80
2021/06/09 01:44:29;;;;;;;40.38;31.70;;;14.10;93.70;;;;;;5047727;28;20497;-79
2021/06/09 01:46:55;;;;;;;34.95;30.77;;;14.10;93.60;;;;;;5061430;28;20097;-80
2021/06/09 01:49:21;;;;;;;38.58;31.10;;;14.10;93.50;;;;;;5057142;28;20021;-79
2021/06/09 01:51:46;;;;;;;36.50;30.13;;;14.00;93.70;;;;;;5047098;28;20029;-80
2021/06/09 01:54:13;;;;;;;37.63;31.20;;;14.00;93.70;;;;;;5057055;28;20023;-81
2021/06/09 01:56:38;;;;;;;34.95;28.67;;;14.00;93.70;;;;;;5046949;28;20064;-80
2021/06/09 01:59:14;;;;;;;32.95;29.08;;;13.90;93.70;;;;;;5047153;28;20063;-80
2021/06/09 02:01:40;;;;;;;35.70;28.23;;;14.20;93.60;;;;;;5029170;28;20024;-79
2021/06/09 02:04:08;;;;;;;50.38;37.20;;;13.80;93.70;;;;;;5047335;28;20035;-80
2021/06/09 02:06:40;;;;;;;44.92;32.80;;;13.90;95.10;;;;;;5047150;28;20020;-80
2021/06/09 02:09:06;;;;;;;34.85;30.92;;;14.00;93.90;;;;;;5032367;28;20035;-80
2021/06/09 02:11:32;;;;;;;44.40;31.50;;;14.00;93.40;;;;;;5057726;28;21431;-80
2021/06/09 02:13:58;;;;;;;37.75;33.63;;;13.80;93.70;;;;;;5045031;28;20066;-80
2021/06/09 02:16:24;;;;;;;36.15;29.48;;;13.80;94.20;;;;;;5043324;28;20052;-80
2021/06/09 02:18:49;;;;;;;39.40;32.10;;;13.80;93.40;;;;;;5059840;28;20067;-80
2021/06/09 02:21:15;;;;;;;39.60;30.83;;;13.80;94.10;;;;;;5058900;28;20056;-80
2021/06/09 02:23:46;;;;;;;40.25;29.73;;;13.80;93.80;;;;;;5047054;28;20024;-80
2021/06/09 02:26:11;;;;;;;40.40;31.30;;;13.70;93.70;;;;;;5059273;28;20024;-79
2021/06/09 02:28:37;;;;;;;34.88;29.63;;;13.80;93.80;;;;;;5058712;28;20032;-80
2021/06/09 02:31:02;;;;;;;43.53;31.45;;;13.70;93.50;;;;;;5044828;28;20028;-80
2021/06/09 02:33:28;;;;;;;34.35;30.55;;;13.60;93.90;;;;;;5057975;28;20024;-81
2021/06/09 02:35:55;;;;;;;36.10;29.55;;;13.60;93.70;;;;;;5057309;28;20107;-81
2021/06/09 02:38:21;;;;;;;34.30;28.45;;;13.50;93.70;;;;;;5058627;28;20021;-80
2021/06/09 02:40:48;;;;;;;36.53;29.90;;;13.50;93.60;;;;;;5047118;28;20031;-80
2021/06/09 02:43:14;;;;;;;37.88;28.95;;;13.50;93.80;;;;;;5060120;28;20284;-80
2021/06/09 02:45:40;;;;;;;32.45;27.00;;;13.40;93.70;;;;;;5046272;28;20012;-79
2021/06/09 02:48:08;;;;;;;35.53;28.00;;;13.50;93.70;;;;;;5029096;28;20700;-79
2021/06/09 02:50:34;;;;;;;41.58;30.60;;;13.40;93.70;;;;;;5044062;28;20759;-80
2021/06/09 02:53:12;;;;;;;32.95;27.70;;;13.30;94.00;;;;;;5046776;28;20016;-79
2021/06/09 02:56:14;;;;;;;33.92;27.48;;;13.30;93.50;;;;;;5058994;28;20013;-80
2021/06/09 02:59:16;;;;;;;34.00;29.00;;;13.30;93.70;;;;;;5060219;28;20489;-79
2021/06/09 03:01:59;;;;;;;35.40;29.00;;;13.30;94.00;;;;;;5030867;28;20031;-79
2021/06/09 03:04:40;;;;;;;36.58;29.25;;;13.30;94.10;;;;;;5061590;28;20029;-80
2021/06/09 03:07:26;;;;;;;34.97;28.58;;;13.20;94.10;;;;;;5072991;28;20036;-79
2021/06/09 03:10:04;;;;;;;35.67;28.33;;;13.10;93.80;;;;;;5056840;28;20017;-79
2021/06/09 03:12:40;;;;;;;36.03;29.98;;;13.20;93.90;;;;;;5060562;28;20029;-81
2021/06/09 03:15:11;;;;;;;31.27;26.52;;;13.10;94.00;;;;;;5045822;28;20064;-80
2021/06/09 03:17:54;;;;;;;32.53;27.25;;;13.20;93.90;;;;;;5028629;28;20048;-81
2021/06/09 03:20:52;;;;;;;33.75;27.75;;;13.20;93.50;;;;;;5055549;28;20026;-80
2021/06/09 03:23:42;;;;;;;36.35;28.02;;;13.20;94.00;;;;;;5051711;28;20067;-82
2021/06/09 03:26:15;;;;;;;43.42;31.27;;;13.10;93.90;;;;;;5077128;28;20372;-83
2021/06/09 03:29:03;;;;;;;35.58;28.60;;;13.10;94.10;;;;;;5043559;28;20040;-83
2021/06/09 03:31:32;;;;;;;36.70;29.20;;;13.10;93.80;;;;;;5025710;28;20081;-80
2021/06/09 03:33:58;;;;;;;37.65;30.10;;;13.10;93.70;;;;;;5060916;28;20016;-81
2021/06/09 03:36:25;;;;;;;36.38;28.58;;;13.20;93.90;;;;;;5055682;28;20024;-82
2021/06/09 03:38:59;;;;;;;32.25;27.33;;;13.20;93.90;;;;;;5045184;28;20149;-82
2021/06/09 03:41:25;;;;;;;31.70;26.38;;;13.20;93.70;;;;;;5056543;28;20020;-81
2021/06/09 03:43:53;;;;;;;31.63;26.40;;;13.20;93.50;;;;;;5044482;28;20086;-82
2021/06/09 03:46:21;;;;;;;35.88;30.13;;;13.20;93.60;;;;;;5045969;28;20032;-81
2021/06/09 03:48:46;;;;;;;31.55;27.30;;;13.30;93.90;;;;;;5057164;28;20036;-81
2021/06/09 03:51:12;;;;;;;31.40;26.95;;;13.40;93.40;;;;;;5055213;28;20027;-81
2021/06/09 03:53:38;;;;;;;33.30;27.13;;;13.40;93.20;;;;;;5054043;28;20582;-80
2021/06/09 03:56:04;;;;;;;34.92;28.35;;;13.40;93.40;;;;;;5041806;28;20020;-81
2021/06/09 03:58:30;;;;;;;39.80;26.92;;;13.40;93.70;;;;;;5057750;28;20645;-81
2021/06/09 04:00:56;;;;;;;29.30;24.88;;;13.30;93.30;;;;;;5043014;28;20207;-81
2021/06/09 04:03:22;;;;;;;35.72;28.20;;;13.40;93.40;;;;;;5055053;28;20476;-81
2021/06/09 04:05:47;;;;;;;39.35;28.63;;;13.50;93.50;;;;;;5042903;28;20033;-80
2021/06/09 04:08:14;;;;;;;32.53;26.58;;;13.50;93.40;;;;;;5044798;28;20116;-82
2021/06/09 04:10:43;;;;;;;31.25;26.95;;;13.60;93.30;;;;;;5043589;28;20031;-82
2021/06/09 04:13:09;;;;;;;33.17;27.05;;;13.60;93.40;;;;;;5042709;28;20833;-81
2021/06/09 04:15:35;;;;;;;32.30;27.83;;;13.60;92.90;;;;;;5043857;28;20049;-81
2021/06/09 04:18:01;;;;;;;31.17;26.35;;;13.70;93.10;;;;;;5027023;28;20052;-82
2021/06/09 04:20:30;;;;;;;35.85;27.27;;;14.00;93.10;;;;;;5058186;28;20035;-82
2021/06/09 04:22:57;;;;;;;32.95;27.42;;;13.90;92.50;;;;;;5043813;28;20020;-83
2021/06/09 04:25:22;;;;;;;31.73;25.33;;;14.00;93.00;;;;;;5040026;28;20029;-80
2021/06/09 04:27:48;;;;;;;30.77;25.17;;;14.00;92.70;;;;;;5053163;28;20047;-81
2021/06/09 04:30:18;;;;;;;26.73;23.77;;;14.10;92.60;;;;;;5046313;28;20019;-83
2021/06/09 04:32:56;;;;;;;28.92;24.92;;;14.30;92.30;;;;;;5043099;28;20047;-81
2021/06/09 04:35:27;;;;;;;30.77;25.27;;;14.30;92.30;;;;;;5025762;28;20403;-83
2021/06/09 04:37:53;;;;;;;28.67;23.50;;;14.40;92.00;;;;;;5054993;28;20017;-82
2021/06/09 04:40:23;;;;;;;28.20;24.92;;;14.60;91.40;;;;;;5060104;28;20039;-81
2021/06/09 04:42:49;;;;;;;27.98;23.58;;;15.00;90.90;;;;;;5032214;28;20427;-81
2021/06/09 04:45:15;;;;;;;25.60;22.33;;;15.60;90.00;;;;;;5048911;28;20043;-82
2021/06/09 04:47:41;;;;;;;24.08;21.42;;;16.40;86.40;;;;;;5047827;28;20122;-83
2021/06/09 04:50:07;;;;;;;26.17;21.30;;;17.20;83.50;;;;;;5053436;28;20393;-83
2021/06/09 04:52:33;;;;;;;21.50;19.17;;;17.60;80.40;;;;;;5060369;28;20430;-83
2021/06/09 04:54:58;;;;;;;23.35;20.73;;;18.20;79.20;;;;;;5060571;28;20021;-82
2021/06/09 04:57:24;;;;;;;21.42;18.98;;;18.30;77.00;;;;;;5059382;28;20123;-81
2021/06/09 04:59:50;;;;;;;21.45;19.17;;;18.30;77.70;;;;;;5048087;28;20025;-82
2021/06/09 05:02:18;;;;;;;24.17;21.52;;;18.60;77.80;;;;;;5061061;28;20066;-82
2021/06/09 05:04:43;;;;;;;25.92;23.10;;;19.00;77.10;;;;;;5052811;28;20021;-84
2021/06/09 05:07:09;;;;;;;28.73;23.52;;;19.40;75.30;;;;;;5044995;28;20039;-83
2021/06/09 05:09:35;;;;;;;26.95;24.15;;;19.80;73.00;;;;;;5059385;28;20032;-82
2021/06/09 05:12:15;;;;;;;25.95;23.13;;;19.90;72.60;;;;;;5042434;28;20040;-81
2021/06/09 05:14:49;;;;;;;23.80;21.45;;;20.00;72.70;;;;;;5061744;28;20394;-84
2021/06/09 05:17:18;;;;;;;25.17;22.48;;;20.30;72.50;;;;;;5048942;28;20038;-85
2021/06/09 05:19:44;;;;;;;24.48;21.83;;;20.30;70.20;;;;;;5060483;28;20663;-83
2021/06/09 05:22:14;;;;;;;32.08;22.50;;;20.70;71.30;;;;;;5051288;28;20132;-82
2021/06/09 05:24:40;;;;;;;23.25;20.85;;;20.80;70.60;;;;;;5043349;28;20107;-82
2021/06/09 05:27:06;;;;;;;23.27;20.98;;;21.40;68.60;;;;;;5031007;28;20140;-81
2021/06/09 05:29:32;;;;;;;23.95;21.45;;;21.40;67.00;;;;;;5045846;28;20052;-82
2021/06/09 05:31:57;;;;;;;24.60;22.02;;;21.20;66.40;;;;;;5047313;28;20088;-81
2021/06/09 05:34:23;;;;;;;24.13;21.70;;;20.90;68.20;;;;;;5048846;28;20107;-83
2021/06/09 05:36:49;;;;;;;26.67;21.38;;;21.10;68.50;;;;;;5046476;28;20039;-83
2021/06/09 05:39:16;;;;;;;23.58;21.27;;;21.60;68.40;;;;;;5047359;28;20035;-83
2021/06/09 05:41:41;;;;;;;23.00;20.17;;;21.80;65.20;;;;;;5032912;28;20021;-83
2021/06/09 05:44:07;;;;;;;26.73;21.70;;;22.00;65.30;;;;;;5045666;28;20107;-82
2021/06/09 05:46:33;;;;;;;24.75;21.92;;;22.00;66.60;;;;;;5046299;28;20017;-83
2021/06/09 05:48:59;;;;;;;24.17;21.40;;;22.10;64.20;;;;;;5048505;28;20062;-82
2021/06/09 05:51:24;;;;;;;24.90;22.23;;;22.40;65.90;;;;;;5034702;28;20111;-81
2021/06/09 05:53:54;;;;;;;25.73;23.30;;;22.80;64.10;;;;;;5043797;28;20460;-79
2021/06/09 05:56:20;;;;;;;28.60;22.40;;;22.40;63.60;;;;;;5043464;28;20029;-80
2021/06/09 05:58:46;;;;;;;26.85;23.23;;;22.50;63.10;;;;;;5041764;28;20082;-78
2021/06/09 06:01:12;;;;;;;25.92;23.42;;;22.80;64.70;;;;;;5042724;28;20032;-79
2021/06/09 06:03:40;;;;;;;25.83;23.05;;;23.30;60.10;;;;;;5055321;28;20414;-80
2021/06/09 06:06:08;;;;;;;25.67;23.05;;;23.20;61.00;;;;;;5037924;28;20114;-80
2021/06/09 06:08:35;;;;;;;27.73;22.67;;;23.30;61.60;;;;;;5039325;28;20135;-79
2021/06/09 06:11:06;;;;;;;25.33;22.75;;;23.30;59.80;;;;;;5021683;28;20639;-79
2021/06/09 06:13:32;;;;;;;29.02;24.75;;;23.00;64.50;;;;;;5055541;28;20024;-79
2021/06/09 06:15:58;;;;;;;26.60;23.88;;;23.10;64.30;;;;;;5041086;28;20079;-79
2021/06/09 06:18:32;;;;;;;25.05;22.48;;;23.30;64.20;;;;;;5053715;28;20122;-79
2021/06/09 06:20:58;;;;;;;28.27;24.65;;;23.50;63.90;;;;;;5039704;28;20041;-80
2021/06/09 06:23:25;;;;;;;27.75;24.35;;;23.40;62.70;;;;;;5040787;28;20047;-79
2021/06/09 06:25:52;;;;;;;27.45;24.55;;;23.70;62.60;;;;;;5035985;28;20019;-80
2021/06/09 06:28:18;;;;;;;26.90;24.20;;;23.70;60.90;;;;;;5039542;28;20055;-79
2021/06/09 06:30:44;;;;;;;25.95;23.33;;;24.50;57.10;;;;;;5039805;28;20024;-79
2021/06/09 06:33:10;;;;;;;24.30;21.83;;;24.20;57.80;;;;;;5038854;28;20370;-79
2021/06/09 06:35:36;;;;;;;27.00;22.10;;;24.30;59.80;;;;;;5040558;28;20017;-79
2021/06/09 06:38:01;;;;;;;27.77;24.88;;;24.50;59.30;;;;;;5035789;28;20041;-79
2021/06/09 06:40:28;;;;;;;30.73;24.63;;;25.10;55.40;;;;;;5036650;28;20035;-80
2021/06/09 06:42:55;;;;;;;28.67;25.60;;;24.50;56.70;;;;;;5024582;28;20040;-80
2021/06/09 06:45:21;;;;;;;29.13;26.13;;;24.20;58.80;;;;;;5021722;28;20028;-79
2021/06/09 06:47:47;;;;;;;29.98;25.20;;;24.20;60.70;;;;;;5038765;28;20207;-79
2021/06/09 06:50:14;;;;;;;38.72;28.05;;;24.60;58.60;;;;;;5031454;28;20039;-79
2021/06/09 06:52:41;;;;;;;32.42;27.13;;;24.60;59.60;;;;;;5037859;28;20009;-80
2021/06/09 06:55:08;;;;;;;29.63;26.27;;;24.80;59.30;;;;;;5022847;28;20036;-80
2021/06/09 06:57:34;;;;;;;30.88;26.23;;;25.00;57.90;;;;;;5033709;28;20020;-80
2021/06/09 07:00:01;;;;;;;30.30;25.70;;;25.10;58.70;;;;;;5037318;28;20017;-79
2021/06/09 07:02:27;;;;;;;29.25;26.15;;;24.80;58.40;;;;;;5039624;28;20355;-79
2021/06/09 07:04:53;;;;;;;28.13;24.98;;;24.80;60.00;;;;;;5038719;28;20453;-79
2021/06/09 07:07:19;;;;;;;30.08;26.00;;;25.20;58.90;;;;;;5038754;28;20101;-79
2021/06/09 07:09:45;;;;;;;28.98;26.02;;;24.60;60.10;;;;;;5053791;28;20318;-79
2021/06/09 07:12:10;;;;;;;30.35;27.10;;;25.00;56.70;;;;;;5022113;28;20036;-79
2021/06/09 07:14:36;;;;;;;30.08;26.58;;;25.10;57.10;;;;;;5040052;28;20033;-79
2021/06/09 07:17:02;;;;;;;31.70;26.65;;;25.20;57.80;;;;;;5040119;28;20194;-79
2021/06/09 07:19:28;;;;;;;31.15;27.00;;;25.50;55.80;;;;;;5034841;28;20020;-79
2021/06/09 07:21:54;;;;;;;29.80;26.65;;;25.10;56.10;;;;;;5041805;28;20020;-79
2021/06/09 07:24:20;;;;;;;29.13;25.70;;;24.90;56.60;;;;;;5023630;28;20682;-79
2021/06/09 07:26:46;;;;;;;29.10;25.90;;;25.20;57.70;;;;;;5053138;28;20032;-80
2021/06/09 07:29:15;;;;;;;29.13;25.90;;;25.40;58.20;;;;;;5039654;28;20028;-78
2021/06/09 07:31:43;;;;;;;30.67;26.00;;;25.70;58.20;;;;;;5036218;28;20119;-80
2021/06/09 07:34:09;;;;;;;31.70;25.65;;;25.60;57.00;;;;;;5020984;28;20025;-82
2021/06/09 07:36:46;;;;;;;29.55;26.42;;;25.30;58.60;;;;;;5041109;28;20127;-80
2021/06/09 07:39:21;;;;;;;32.22;26.00;;;25.80;58.00;;;;;;5039129;28;20031;-78
2021/06/09 07:41:46;;;;;;;32.78;28.95;;;25.60;59.60;;;;;;5045588;28;20622;-79
2021/06/09 07:44:12;;;;;;;30.85;27.02;;;25.80;57.50;;;;;;5020415;28;20028;-79
2021/06/09 07:46:38;;;;;;;30.17;26.52;;;25.80;57.00;;;;;;5037623;28;20021;-79
2021/06/09 07:49:07;;;;;;;31.85;28.58;;;25.50;59.60;;;;;;5035038;28;20025;-79
2021/06/09 07:51:33;;;;;;;29.20;26.00;;;25.50;56.40;;;;;;5035937;28;20040;-79
2021/06/09 07:54:00;;;;;;;27.45;24.55;;;25.80;55.70;;;;;;5034550;28;20029;-79
2021/06/09 07:56:33;;;;;;;26.05;23.40;;;25.70;55.70;;;;;;5022523;28;20021;-79
2021/06/09 07:59:04;;;;;;;27.67;24.73;;;25.90;55.10;;;;;;5052437;28;20023;-79
2021/06/09 08:01:31;;;;;;;26.48;23.55;;;25.70;54.80;;;;;;5020010;28;20055;-78
2021/06/09 08:03:57;;;;;;;25.15;22.52;;;26.00;54.80;;;;;;5052431;28;20029;-78
2021/06/09 08:06:24;;;;;;;31.98;26.38;;;26.40;53.50;;;;;;5040453;28;20016;-80
2021/06/09 08:08:50;;;;;;;25.92;23.27;;;25.70;57.40;;;;;;5041661;28;20033;-80
2021/06/09 08:11:16;;;;;;;25.27;21.30;;;26.50;57.50;;;;;;5052588;28;20669;-81
2021/06/09 08:13:42;;;;;;;23.73;21.23;;;26.10;55.90;;;;;;5022452;28;20028;-79
2021/06/09 08:16:16;;;;;;;22.70;18.67;;;25.90;54.40;;;;;;5053522;28;20037;-80
2021/06/09 08:18:42;;;;;;;27.53;23.27;;;26.00;55.90;;;;;;5056650;28;20584;-80
2021/06/09 08:21:16;;;;;;;24.95;22.42;;;26.10;56.50;;;;;;5052547;28;20037;-80
2021/06/09 08:23:44;;;;;;;25.00;22.60;;;25.70;57.50;;;;;;5043831;28;20027;-79
2021/06/09 08:26:12;;;;;;;25.02;22.38;;;25.70;56.80;;;;;;5054592;28;20102;-79
2021/06/09 08:28:39;;;;;;;25.05;22.35;;;25.70;57.50;;;;;;5054206;28;20123;-80
2021/06/09 08:31:09;;;;;;;23.77;21.38;;;26.30;56.60;;;;;;5042719;28;20036;-79
2021/06/09 08:33:36;;;;;;;29.85;25.30;;;26.40;57.60;;;;;;5034802;28;20113;-80
2021/06/09 08:36:05;;;;;;;29.80;25.42;;;26.30;57.90;;;;;;5042652;28;20032;-80
2021/06/09 08:38:31;;;;;;;30.60;26.52;;;26.10;57.70;;;;;;5041750;28;20111;-82
2021/06/09 08:40:58;;;;;;;35.63;25.08;;;26.30;57.40;;;;;;5054327;28;20047;-82
2021/06/09 08:43:23;;;;;;;25.25;22.10;;;26.20;59.00;;;;;;5057721;28;20675;-82
2021/06/09 08:45:49;;;;;;;23.45;20.65;;;26.40;59.10;;;;;;5042690;28;20028;-80
2021/06/09 08:48:16;;;;;;;23.92;21.42;;;26.40;58.70;;;;;;5058811;28;20131;-79
2021/06/09 08:50:42;;;;;;;24.77;21.85;;;27.00;55.90;;;;;;5055557;28;20020;-79
2021/06/09 08:53:09;;;;;;;21.98;19.85;;;26.70;56.50;;;;;;5053443;28;20033;-79
2021/06/09 08:55:35;;;;;;;22.70;20.58;;;26.50;56.70;;;;;;5053846;28;20031;-80
2021/06/09 08:58:06;;;;;;;23.58;21.10;;;26.40;56.80;;;;;;5029084;28;20024;-80
2021/06/09 09:00:33;;;;;;;27.63;23.10;;;26.70;55.90;;;;;;5052335;28;20029;-80
2021/06/09 09:03:01;;;;;;;23.00;19.63;;;26.30;56.20;;;;;;5035154;28;20039;-81
2021/06/09 09:05:28;;;;;;;22.42;20.02;;;26.60;56.70;;;;;;5034848;28;20021;-82
2021/06/09 09:07:57;;;;;;;20.33;18.23;;;27.00;55.40;;;;;;5047775;28;20159;-80
2021/06/09 09:10:23;;;;;;;24.92;21.88;;;27.30;52.80;;;;;;5038309;28;20361;-79
2021/06/09 09:12:48;;;;;;;22.00;19.70;;;26.90;53.10;;;;;;5037525;28;20078;-79
2021/06/09 09:15:14;;;;;;;23.45;21.10;;;27.10;54.90;;;;;;5038432;28;20040;-79
2021/06/09 09:17:51;;;;;;;25.60;19.58;;;27.20;51.80;;;;;;5039477;28;20036;-79
2021/06/09 09:20:29;;;;;;;23.27;18.63;;;27.30;50.60;;;;;;5022021;28;20028;-78
2021/06/09 09:22:58;;;;;;;26.42;20.33;;;27.50;53.00;;;;;;5039574;28;20027;-81
2021/06/09 09:25:26;;;;;;;23.95;21.33;;;27.60;53.20;;;;;;5051433;28;20422;-79
2021/06/09 09:28:00;;;;;;;23.60;20.73;;;27.30;53.20;;;;;;5044641;28;20036;-80
2021/06/09 09:30:27;;;;;;;22.35;18.85;;;27.40;54.30;;;;;;5031311;28;20734;-79
2021/06/09 09:33:08;;;;;;;21.80;18.42;;;27.50;53.00;;;;;;5039913;28;20016;-79
2021/06/09 09:35:35;;;;;;;24.58;20.92;;;27.60;51.90;;;;;;5054413;28;20029;-80
2021/06/09 09:38:22;;;;;;;25.40;22.00;;;27.70;51.80;;;;;;5033985;28;20021;-78
2021/06/09 09:40:58;;;;;;;22.25;20.05;;;27.30;52.50;;;;;;5055276;28;20027;-79
2021/06/09 09:44:00;;;;;;;24.30;21.70;;;27.70;55.10;;;;;;5035693;28;20097;-79
2021/06/09 09:46:35;;;;;;;25.25;22.65;;;27.50;54.10;;;;;;4999033;28;20611;-79
2021/06/09 09:49:07;;;;;;;23.38;20.92;;;27.70;54.10;;;;;;5057562;28;20045;-81
2021/06/09 09:51:37;;;;;;;26.60;18.65;;;27.80;51.90;;;;;;5040729;28;20029;-84
2021/06/09 09:54:07;;;;;;;23.73;21.33;;;27.70;53.10;;;;;;5059236;28;20541;-83
2021/06/09 09:56:36;;;;;;;23.23;20.27;;;27.30;52.50;;;;;;5059586;28;20028;-83
2021/06/09 09:59:06;;;;;;;24.02;19.65;;;27.50;54.10;;;;;;5061315;28;20789;-81
2021/06/09 10:01:34;;;;;;;27.90;21.00;;;27.90;52.20;;;;;;5056471;28;20033;-82
2021/06/09 10:04:00;;;;;;;20.45;18.15;;;27.80;52.10;;;;;;5042551;28;20036;-83
2021/06/09 10:06:28;;;;;;;18.20;13.80;;;28.30;53.10;;;;;;5028393;28;20481;-82
2021/06/09 10:08:56;;;;;;;22.42;16.08;;;28.20;47.80;;;;;;5063526;28;20056;-83
2021/06/09 10:11:23;;;;;;;17.67;14.85;;;28.10;49.50;;;;;;5043437;28;20048;-83
2021/06/09 10:13:48;;;;;;;18.63;15.35;;;27.60;49.90;;;;;;5038624;28;20025;-80
2021/06/09 10:16:29;;;;;;;18.67;16.48;;;26.90;51.70;;;;;;5059292;28;20069;-81
2021/06/09 10:18:58;;;;;;;16.42;14.70;;;26.90;51.00;;;;;;5049975;28;20029;-81
2021/06/09 10:21:24;;;;;;;14.50;12.98;;;27.10;53.70;;;;;;5058781;28;20539;-80
2021/06/09 10:23:50;;;;;;;14.75;13.35;;;27.40;52.80;;;;;;5041245;28;20033;-81
2021/06/09 10:26:17;;;;;;;14.80;13.27;;;27.40;47.00;;;;;;5040303;28;20562;-80
2021/06/09 10:29:02;;;;;;;14.35;12.95;;;27.70;45.10;;;;;;5017987;28;20682;-79
2021/06/09 10:31:32;;;;;;;14.32;12.90;;;27.80;47.00;;;;;;5055942;28;20035;-80
2021/06/09 10:33:58;;;;;;;14.90;13.38;;;28.00;47.60;;;;;;5032181;28;20028;-80
2021/06/09 10:36:24;;;;;;;17.40;13.90;;;28.10;49.90;;;;;;5024363;28;20034;-79
2021/06/09 10:38:51;;;;;;;16.88;15.27;;;27.90;53.10;;;;;;5041641;28;20507;-79
2021/06/09 10:41:17;;;;;;;17.38;14.60;;;27.90;50.00;;;;;;5058186;28;20025;-80
2021/06/09 10:43:44;;;;;;;18.65;16.48;;;27.20;49.10;;;;;;5041876;28;20020;-79
2021/06/09 10:46:10;;;;;;;20.08;18.20;;;26.90;53.20;;;;;;5040456;28;20025;-79
2021/06/09 10:48:36;;;;;;;17.77;15.98;;;26.60;51.60;;;;;;5040521;28;20034;-81
2021/06/09 10:51:01;;;;;;;18.25;16.17;;;26.60;50.90;;;;;;5023282;28;20020;-80
2021/06/09 10:53:27;;;;;;;19.88;17.33;;;26.90;53.40;;;;;;5037806;28;20032;-79
2021/06/09 10:55:53;;;;;;;19.33;17.13;;;27.30;50.10;;;;;;5041300;28;20279;-80
2021/06/09 10:58:23;;;;;;;18.13;16.25;;;27.50;47.30;;;;;;5052728;28;20044;-80
2021/06/09 11:00:49;;;;;;;16.95;15.18;;;27.60;45.50;;;;;;5040801;28;20041;-79
2021/06/09 11:03:15;;;;;;;16.90;15.13;;;27.60;46.50;;;;;;5052511;28;20745;-81
2021/06/09 11:05:41;;;;;;;17.85;15.77;;;28.00;47.20;;;;;;5023630;28;20031;-80
2021/06/09 11:08:06;;;;;;;15.65;14.15;;;28.10;43.70;;;;;;5039709;28;20152;-80
2021/06/09 11:10:37;;;;;;;17.45;15.40;;;28.30;44.30;;;;;;5051900;28;20036;-79
2021/06/09 11:13:04;;;;;;;15.30;13.70;;;27.80;46.60;;;;;;5054802;28;20465;-80
2021/06/09 11:15:34;;;;;;;21.02;18.80;;;27.90;46.50;;;;;;5039475;28;20039;-80
2021/06/09 11:18:02;;;;;;;19.65;15.23;;;28.60;44.90;;;;;;5040500;28;20013;-81
2021/06/09 11:20:33;;;;;;;19.27;17.33;;;28.50;50.10;;;;;;5038730;28;20029;-81
2021/06/09 11:23:08;;;;;;;20.55;16.77;;;28.40;46.80;;;;;;5039619;28;20023;-80
2021/06/09 11:25:43;;;;;;;17.85;15.88;;;28.70;49.00;;;;;;5024026;28;20029;-79
2021/06/09 11:28:31;;;;;;;20.88;18.80;;;28.50;50.10;;;;;;5043681;28;20033;-79
2021/06/09 11:31:02;;;;;;;20.23;18.23;;;28.80;45.30;;;;;;5053003;28;20025;-80
2021/06/09 11:33:48;;;;;;;19.52;17.33;;;28.70;48.10;;;;;;5030020;28;20024;-80
2021/06/09 11:36:17;;;;;;;19.58;17.60;;;28.40;48.60;;;;;;5047266;28;20071;-80
2021/06/09 11:38:48;;;;;;;17.63;15.82;;;27.90;51.20;;;;;;5043638;28;20029;-79
2021/06/09 11:41:15;;;;;;;18.00;16.27;;;27.40;46.30;;;;;;5051379;28;20032;-79
2021/06/09 11:43:44;;;;;;;20.13;18.10;;;27.30;45.60;;;;;;5055771;28;20028;-80
2021/06/09 11:46:24;;;;;;;16.52;14.85;;;27.00;45.80;;;;;;5040866;28;20024;-82
2021/06/09 11:48:59;;;;;;;19.17;17.40;;;27.70;52.70;;;;;;5042627;28;20025;-80
2021/06/09 11:51:38;;;;;;;18.83;16.92;;;27.90;51.70;;;;;;5044460;28;20024;-82
2021/06/09 11:54:17;;;;;;;15.70;14.10;;;28.20;44.20;;;;;;5060040;28;20051;-81
2021/06/09 11:56:52;;;;;;;19.50;17.48;;;28.30;43.30;;;;;;5059780;28;20020;-82
2021/06/09 11:59:34;;;;;;;19.33;17.42;;;27.60;47.80;;;;;;5024942;28;20031;-81
2021/06/09 12:02:26;;;;;;;16.42;14.80;;;28.00;49.20;;;;;;5016293;28;20067;-79
2021/06/09 12:04:58;;;;;;;16.33;14.75;;;28.20;45.60;;;;;;5049025;28;20430;-80
2021/06/09 12:07:28;;;;;;;18.20;16.20;;;28.20;48.10;;;;;;5053417;28;20043;-79
2021/06/09 12:09:57;;;;;;;17.35;15.57;;;28.20;43.90;;;;;;5041764;28;20608;-81
2021/06/09 12:12:27;;;;;;;15.77;14.18;;;28.00;42.70;;;;;;5022736;28;20105;-82
2021/06/09 12:14:58;;;;;;;14.95;12.63;;;28.10;47.00;;;;;;5022944;28;20025;-80
2021/06/09 12:17:31;;;;;;;16.65;14.90;;;28.30;44.10;;;;;;5040857;28;20066;-79
2021/06/09 12:20:13;;;;;;;15.02;13.52;;;28.10;42.80;;;;;;5036505;28;20051;-80
2021/06/09 12:22:52;;;;;;;14.88;13.27;;;27.60;44.30;;;;;;5056445;28;20077;-80
2021/06/09 12:25:27;;;;;;;15.10;13.13;;;27.40;46.60;;;;;;5039430;28;20135;-79
2021/06/09 12:28:07;;;;;;;14.18;12.73;;;27.60;46.50;;;;;;5053044;28;20028;-81
2021/06/09 12:30:34;;;;;;;15.70;12.35;;;27.80;45.30;;;;;;5039186;28;20550;-80
2021/06/09 12:33:01;;;;;;;14.07;12.77;;;28.00;46.60;;;;;;5044296;28;20078;-81
2021/06/09 12:35:27;;;;;;;13.65;12.45;;;28.60;48.50;;;;;;5049424;28;20048;-82
2021/06/09 12:37:56;;;;;;;14.52;12.40;;;28.70;43.30;;;;;;5046762;28;20060;-81
2021/06/09 12:40:34;;;;;;;13.45;11.88;;;28.50;43.00;;;;;;5056905;28;20047;-81